Huntsville, Texas
Current Conditions -  °F | °C
As of 5:53 PM on Saturday 22 Nov 2014 (Local Time) from KUTS Reporting Station
Thunderstorm Thunderstorm  
Wind Chill: 64°   Ceiling: 700
Heat Index: 64°   Visibility: 5mi
Dew Point: 63°   Wind: 6mph
Humidity: 96%   Direction: 50°NE
Pressure: 29.8"   Gusts: NA
Location:  30.72°N, 95.55°W
Report Text: KUTS 222353Z AUTO 05005KT 5SM VCTS -RA BR OVC007 18/17 A2980 RMK AO2 LTG DSNT SW-N RAE20B34 TSE05 CIG 003V014 SLP089 P0003 60040 T01780172 10200 20172 58029
Loading
Personal Weather Stations






























Interactive Weather Map New forecast layout! Learn more

10-Day Weather Forecast

Advertisements
Track Severe Weather on mobile